Time;durP1;ratioP1;P1;durP2;ratioP2;P2;SDS_P1;SDS_P2;PMS_P1;PMS_P2;Temp;Humidity;BMP_temperature;BMP_pressure;BME280_temperature;BME280_humidity;BME280_pressure;Samples;Min_cycle;Max_cycle;Signal;HPM_P1;HPM_P2
2023/08/22 00:01:11;;;;;;;3.13;2.93;;;20.70;65.00;;;;;;6221508;28;20308;-79
2023/08/22 00:04:14;;;;;;;3.27;3.07;;;20.70;64.90;;;;;;6215862;28;20238;-81
2023/08/22 00:07:18;;;;;;;3.67;3.23;;;20.70;64.80;;;;;;6218210;28;20241;-81
2023/08/22 00:10:21;;;;;;;4.20;2.97;;;20.70;65.00;;;;;;6230425;28;20806;-81
2023/08/22 00:13:25;;;;;;;5.43;3.10;;;20.60;65.10;;;;;;6233166;28;20227;-81
2023/08/22 00:16:28;;;;;;;3.30;3.10;;;20.50;65.60;;;;;;6230653;28;20270;-82
2023/08/22 00:19:31;;;;;;;3.47;3.17;;;20.50;65.50;;;;;;6236806;28;20242;-81
2023/08/22 00:22:35;;;;;;;5.97;3.00;;;20.40;65.60;;;;;;6230825;28;20259;-80
2023/08/22 00:25:39;;;;;;;4.17;3.20;;;20.40;65.70;;;;;;6231323;28;20296;-81
2023/08/22 00:28:43;;;;;;;3.77;3.20;;;20.40;65.70;;;;;;6222610;28;20234;-81
2023/08/22 00:31:47;;;;;;;7.40;3.23;;;20.30;65.60;;;;;;6229812;28;20876;-81
2023/08/22 00:34:50;;;;;;;3.30;2.97;;;20.30;65.60;;;;;;6229993;28;20372;-80
2023/08/22 00:37:53;;;;;;;2.87;2.70;;;20.30;65.50;;;;;;6240104;28;20314;-78
2023/08/22 00:40:56;;;;;;;3.53;3.20;;;20.30;65.60;;;;;;6230559;28;20258;-83
2023/08/22 00:44:02;;;;;;;3.17;2.80;;;20.30;65.60;;;;;;6229491;28;20318;-83
2023/08/22 00:47:05;;;;;;;4.37;2.70;;;20.30;65.60;;;;;;6227983;28;20266;-81
2023/08/22 00:50:10;;;;;;;2.97;2.83;;;20.30;65.50;;;;;;6209990;28;20231;-82
2023/08/22 00:53:13;;;;;;;4.63;2.70;;;20.30;65.90;;;;;;6216934;28;20246;-83
2023/08/22 00:56:18;;;;;;;3.23;2.90;;;20.30;65.70;;;;;;6237579;28;20319;-83
2023/08/22 00:59:23;;;;;;;3.37;2.97;;;20.30;65.70;;;;;;6237599;28;20318;-83
2023/08/22 01:02:26;;;;;;;4.60;2.93;;;20.30;65.80;;;;;;6235630;28;20382;-82
2023/08/22 01:05:33;;;;;;;5.93;3.40;;;20.30;65.90;;;;;;6241480;28;20333;-79
2023/08/22 01:08:39;;;;;;;3.87;3.50;;;20.30;66.00;;;;;;6241776;28;20250;-80
2023/08/22 01:11:46;;;;;;;3.47;3.13;;;20.20;66.00;;;;;;6242538;28;20253;-80
2023/08/22 01:14:59;;;;;;;5.10;3.20;;;20.10;66.00;;;;;;6243107;28;20705;-80
2023/08/22 01:18:04;;;;;;;5.17;3.30;;;20.10;66.00;;;;;;6251081;28;20653;-81
2023/08/22 01:21:07;;;;;;;5.77;3.27;;;20.10;66.10;;;;;;6231142;28;20242;-78
2023/08/22 01:24:11;;;;;;;3.60;3.23;;;20.10;66.00;;;;;;6242470;28;20318;-81
2023/08/22 01:27:18;;;;;;;4.57;3.20;;;20.10;65.90;;;;;;6234334;28;20314;-81
2023/08/22 01:30:30;;;;;;;3.30;3.00;;;20.10;65.90;;;;;;6235497;28;20326;-82
2023/08/22 01:33:37;;;;;;;5.47;2.87;;;20.20;65.90;;;;;;6204563;28;20231;-81
2023/08/22 01:36:42;;;;;;;4.93;3.33;;;20.20;65.50;;;;;;6242973;28;20797;-82
2023/08/22 01:39:48;;;;;;;6.53;3.50;;;20.10;65.50;;;;;;6243114;28;20739;-81
2023/08/22 01:42:51;;;;;;;4.50;3.60;;;20.20;65.50;;;;;;6238261;28;20239;-82
2023/08/22 01:45:54;;;;;;;3.43;3.03;;;20.20;65.40;;;;;;6242977;28;20368;-82
2023/08/22 01:48:57;;;;;;;3.80;3.47;;;20.10;65.70;;;;;;6235693;28;20234;-80
2023/08/22 01:52:00;;;;;;;4.10;3.27;;;20.10;65.70;;;;;;6241085;28;20273;-82
2023/08/22 01:55:06;;;;;;;5.27;3.33;;;20.10;65.70;;;;;;6241303;28;20720;-79
2023/08/22 01:58:11;;;;;;;3.63;2.83;;;20.10;65.80;;;;;;6239641;28;20400;-83
2023/08/22 02:01:14;;;;;;;3.43;3.20;;;20.20;65.80;;;;;;6226980;28;20262;-79
2023/08/22 02:04:17;;;;;;;5.93;3.23;;;20.10;66.10;;;;;;6234078;28;20315;-81
2023/08/22 02:07:20;;;;;;;3.30;2.90;;;20.00;66.20;;;;;;6242398;28;20242;-79
2023/08/22 02:10:25;;;;;;;4.37;3.30;;;20.00;66.30;;;;;;6239533;28;20786;-81
2023/08/22 02:13:30;;;;;;;3.23;3.03;;;20.00;66.30;;;;;;6243074;28;20316;-79
2023/08/22 02:16:34;;;;;;;2.97;2.77;;;20.00;66.30;;;;;;6238737;28;20328;-81
2023/08/22 02:19:37;;;;;;;3.00;2.80;;;20.00;66.40;;;;;;6234509;28;20318;-81
2023/08/22 02:22:40;;;;;;;4.03;2.93;;;20.00;66.40;;;;;;6241439;28;20321;-80
2023/08/22 02:25:46;;;;;;;3.90;3.57;;;20.00;66.50;;;;;;6240261;28;20308;-82
2023/08/22 02:28:50;;;;;;;5.07;3.17;;;20.00;66.60;;;;;;6241089;28;20235;-81
2023/08/22 02:31:53;;;;;;;6.03;3.20;;;20.00;66.50;;;;;;6240189;28;20329;-82
2023/08/22 02:34:56;;;;;;;3.30;3.20;;;20.00;66.70;;;;;;6239793;28;20276;-81
2023/08/22 02:37:59;;;;;;;7.63;3.20;;;20.00;66.60;;;;;;6238211;28;20660;-82
2023/08/22 02:41:03;;;;;;;3.00;2.90;;;20.00;66.80;;;;;;6239664;28;20280;-80
2023/08/22 02:44:07;;;;;;;4.13;3.03;;;20.00;66.80;;;;;;6235190;28;20303;-80
2023/08/22 02:47:10;;;;;;;5.63;3.43;;;20.00;66.80;;;;;;6229925;28;20313;-81
2023/08/22 02:50:13;;;;;;;6.90;3.40;;;20.00;66.70;;;;;;6238844;28;20330;-80
2023/08/22 02:53:16;;;;;;;3.40;3.13;;;20.00;66.70;;;;;;6229183;28;20307;-77
2023/08/22 02:56:20;;;;;;;5.27;3.80;;;20.00;66.90;;;;;;6223010;28;20911;-81
2023/08/22 02:59:23;;;;;;;3.50;3.20;;;20.00;66.60;;;;;;6227692;28;20637;-82
2023/08/22 03:02:27;;;;;;;5.03;3.13;;;19.90;66.80;;;;;;6239356;28;20253;-83
2023/08/22 03:05:31;;;;;;;4.37;3.30;;;19.90;66.80;;;;;;6239075;28;20898;-82
2023/08/22 03:08:34;;;;;;;5.00;3.23;;;19.90;66.70;;;;;;6239343;28;20328;-83
2023/08/22 03:11:38;;;;;;;4.17;3.17;;;19.90;66.60;;;;;;6247672;28;20246;-78
2023/08/22 03:14:42;;;;;;;3.40;3.00;;;19.90;66.50;;;;;;6240163;28;20890;-82
2023/08/22 03:17:45;;;;;;;4.57;3.43;;;19.90;66.40;;;;;;6238063;28;20900;-79
2023/08/22 03:20:48;;;;;;;4.80;3.17;;;19.90;66.50;;;;;;6225440;28;20234;-79
2023/08/22 03:23:51;;;;;;;3.60;3.30;;;19.90;66.60;;;;;;6238227;28;20672;-79
2023/08/22 03:26:55;;;;;;;7.27;3.37;;;19.90;66.50;;;;;;6232951;28;20289;-81
2023/08/22 03:29:59;;;;;;;3.57;3.27;;;19.90;66.60;;;;;;6231663;28;20248;-80
2023/08/22 03:33:02;;;;;;;6.33;3.40;;;19.90;66.40;;;;;;6227922;28;20239;-80
2023/08/22 03:36:06;;;;;;;3.17;3.07;;;19.90;66.50;;;;;;6239571;28;20234;-78
2023/08/22 03:39:09;;;;;;;3.57;3.27;;;19.90;66.50;;;;;;6239740;28;20617;-78
2023/08/22 03:42:14;;;;;;;3.00;2.90;;;19.90;66.60;;;;;;6238348;28;20243;-78
2023/08/22 03:45:17;;;;;;;3.47;3.10;;;19.90;66.50;;;;;;6232687;28;20255;-76
2023/08/22 03:48:20;;;;;;;4.23;3.30;;;19.90;66.40;;;;;;6235348;28;20354;-76
2023/08/22 03:51:23;;;;;;;3.50;3.23;;;19.90;66.30;;;;;;6236888;28;20299;-75
2023/08/22 03:54:26;;;;;;;3.93;2.90;;;19.90;66.20;;;;;;6237759;28;20258;-76
2023/08/22 03:57:30;;;;;;;3.00;2.80;;;19.80;66.20;;;;;;6234218;28;20733;-78
2023/08/22 04:00:33;;;;;;;5.07;4.33;;;19.80;66.20;;;;;;6237250;28;20362;-76
2023/08/22 04:03:36;;;;;;;4.00;3.13;;;19.80;66.20;;;;;;6237304;28;20234;-77
2023/08/22 04:06:40;;;;;;;4.30;3.20;;;19.70;66.00;;;;;;6234206;28;20389;-76
2023/08/22 04:09:42;;;;;;;3.27;3.07;;;19.70;66.30;;;;;;6220776;28;20318;-79
2023/08/22 04:12:47;;;;;;;2.93;2.60;;;19.70;66.20;;;;;;6240427;28;20234;-78
2023/08/22 04:15:50;;;;;;;3.33;3.00;;;19.60;66.30;;;;;;6234131;28;20250;-80
2023/08/22 04:18:53;;;;;;;4.37;2.83;;;19.60;66.50;;;;;;6232081;28;20348;-84
2023/08/22 04:21:56;;;;;;;5.23;3.10;;;19.60;66.20;;;;;;6237027;28;20372;-81
2023/08/22 04:24:59;;;;;;;3.13;2.77;;;19.60;66.20;;;;;;6236114;28;20238;-80
2023/08/22 04:28:05;;;;;;;7.20;3.70;;;19.60;66.00;;;;;;6235623;28;20729;-79
2023/08/22 04:31:08;;;;;;;3.30;3.10;;;19.60;66.10;;;;;;6234436;28;20254;-81
2023/08/22 04:34:12;;;;;;;3.33;3.07;;;19.70;65.90;;;;;;6228993;28;20246;-82
2023/08/22 04:37:15;;;;;;;4.17;3.10;;;19.70;65.60;;;;;;6229359;28;20278;-83
2023/08/22 04:40:18;;;;;;;6.03;3.13;;;19.70;65.80;;;;;;6234850;28;20258;-78
2023/08/22 04:43:22;;;;;;;7.07;2.60;;;19.70;65.50;;;;;;6235772;28;20268;-78
2023/08/22 04:46:25;;;;;;;2.90;2.77;;;19.80;65.50;;;;;;6228317;28;20377;-81
2023/08/22 04:49:29;;;;;;;4.53;2.90;;;19.90;65.30;;;;;;6233404;28;20277;-78
2023/08/22 04:52:32;;;;;;;5.50;2.97;;;19.90;65.20;;;;;;6233149;28;20326;-79
2023/08/22 04:55:35;;;;;;;3.70;3.20;;;20.00;64.90;;;;;;6231828;28;20447;-79
2023/08/22 04:58:39;;;;;;;3.03;2.80;;;20.00;64.90;;;;;;6223749;28;20246;-81
2023/08/22 05:01:42;;;;;;;2.60;2.50;;;20.00;64.60;;;;;;6227845;28;20758;-81
2023/08/22 05:04:45;;;;;;;3.30;2.60;;;20.00;63.60;;;;;;6238852;28;20250;-82
2023/08/22 05:07:48;;;;;;;3.93;3.20;;;20.00;63.70;;;;;;6245207;28;20690;-79
2023/08/22 05:10:51;;;;;;;3.87;2.87;;;20.00;63.80;;;;;;6232490;28;20234;-81
2023/08/22 05:13:56;;;;;;;4.30;3.03;;;20.00;63.30;;;;;;6233597;28;20261;-79
2023/08/22 05:16:59;;;;;;;6.73;3.10;;;20.10;63.00;;;;;;6236858;28;20257;-80
2023/08/22 05:20:04;;;;;;;3.23;2.60;;;20.10;63.10;;;;;;6228184;28;20330;-80
2023/08/22 05:23:07;;;;;;;5.83;3.20;;;20.10;63.20;;;;;;6236595;28;20278;-77
2023/08/22 05:26:10;;;;;;;5.90;3.30;;;20.30;63.30;;;;;;6233581;28;20262;-81
2023/08/22 05:29:19;;;;;;;6.40;3.13;;;20.30;63.30;;;;;;6231638;28;20238;-81
2023/08/22 05:32:22;;;;;;;6.50;3.47;;;20.30;63.40;;;;;;6218878;28;20238;-79
2023/08/22 05:35:26;;;;;;;5.57;3.00;;;20.40;63.70;;;;;;6226095;28;20227;-79
2023/08/22 05:38:29;;;;;;;6.03;2.87;;;20.40;63.70;;;;;;6235294;28;20791;-81
2023/08/22 05:41:32;;;;;;;6.10;3.03;;;20.40;64.00;;;;;;6234988;28;20325;-82
2023/08/22 05:44:40;;;;;;;5.83;3.17;;;20.50;63.60;;;;;;6235161;28;20321;-81
2023/08/22 05:47:44;;;;;;;3.70;2.63;;;20.50;63.90;;;;;;6234803;28;20296;-82
2023/08/22 05:50:48;;;;;;;5.80;2.70;;;20.60;64.10;;;;;;6238282;28;20631;-80
2023/08/22 05:53:51;;;;;;;15.43;3.30;;;20.70;63.90;;;;;;6223896;28;20322;-80
2023/08/22 05:56:54;;;;;;;3.37;2.50;;;20.70;63.30;;;;;;6225132;28;20870;-81
2023/08/22 05:59:59;;;;;;;10.67;3.20;;;20.80;63.50;;;;;;6239955;28;20245;-82
2023/08/22 06:03:02;;;;;;;5.70;3.23;;;20.90;62.70;;;;;;6236019;28;20790;-81
2023/08/22 06:06:06;;;;;;;4.87;2.50;;;20.90;62.70;;;;;;6233200;28;20235;-80
2023/08/22 06:09:09;;;;;;;8.93;3.10;;;20.90;62.30;;;;;;6235605;28;20770;-80
2023/08/22 06:12:12;;;;;;;9.90;3.30;;;20.90;62.40;;;;;;6221557;28;20450;-77
2023/08/22 06:15:17;;;;;;;4.73;2.63;;;20.90;62.20;;;;;;6233579;28;20312;-79
2023/08/22 06:18:20;;;;;;;5.93;2.67;;;20.90;62.50;;;;;;6238294;28;20265;-79
2023/08/22 06:21:23;;;;;;;5.40;2.77;;;20.90;62.70;;;;;;6199340;28;20239;-79
2023/08/22 06:24:26;;;;;;;7.80;4.90;;;20.90;62.50;;;;;;6213180;28;20801;-79
2023/08/22 06:27:29;;;;;;;5.23;3.00;;;20.90;62.70;;;;;;6216437;28;20783;-78
2023/08/22 06:30:34;;;;;;;3.10;2.90;;;21.10;62.60;;;;;;6209757;28;20285;-78
2023/08/22 06:33:39;;;;;;;4.13;3.13;;;21.10;62.60;;;;;;6213812;28;20318;-76
2023/08/22 06:36:42;;;;;;;5.57;3.03;;;21.30;62.20;;;;;;6210835;28;20326;-78
2023/08/22 06:39:45;;;;;;;5.20;2.70;;;21.40;61.60;;;;;;6202734;28;20271;-80
2023/08/22 06:42:48;;;;;;;11.47;3.10;;;21.50;61.90;;;;;;6209499;28;20326;-78
2023/08/22 06:45:57;;;;;;;6.57;3.23;;;21.30;60.90;;;;;;6218279;28;20828;-79
2023/08/22 06:49:00;;;;;;;7.17;3.17;;;21.30;61.30;;;;;;6211641;28;20239;-81
2023/08/22 06:52:03;;;;;;;6.40;3.23;;;21.30;61.30;;;;;;6221438;28;20246;-77
2023/08/22 06:55:07;;;;;;;2.90;2.60;;;21.50;61.20;;;;;;6227844;28;20754;-79
2023/08/22 06:58:10;;;;;;;6.97;3.40;;;21.70;60.80;;;;;;6226487;28;20688;-79
2023/08/22 07:01:15;;;;;;;2.97;2.60;;;22.00;60.60;;;;;;6188142;28;20326;-79
2023/08/22 07:04:18;;;;;;;2.67;2.47;;;22.30;59.80;;;;;;6216856;28;20250;-80
2023/08/22 07:07:21;;;;;;;2.83;2.63;;;22.50;59.00;;;;;;6225522;28;20234;-77
2023/08/22 07:10:25;;;;;;;5.27;2.63;;;22.60;59.20;;;;;;6225640;28;20269;-79
2023/08/22 07:13:28;;;;;;;5.30;2.33;;;22.60;58.20;;;;;;6214175;28;20793;-79
2023/08/22 07:16:32;;;;;;;5.43;2.77;;;22.60;59.00;;;;;;6214856;28;20322;-77
2023/08/22 07:19:35;;;;;;;4.57;3.13;;;22.70;58.90;;;;;;6179881;28;20322;-78
2023/08/22 07:22:44;;;;;;;8.90;2.97;;;22.90;58.00;;;;;;6213794;28;20744;-80
2023/08/22 07:25:49;;;;;;;6.57;2.73;;;22.90;57.80;;;;;;6220890;28;20409;-78
2023/08/22 07:28:52;;;;;;;2.93;2.60;;;22.90;57.40;;;;;;6218674;28;20325;-80
2023/08/22 07:31:59;;;;;;;5.57;2.37;;;22.90;57.40;;;;;;6221515;28;20428;-84
2023/08/22 07:35:02;;;;;;;3.80;2.67;;;22.80;57.50;;;;;;6218270;28;20753;-78
2023/08/22 07:38:06;;;;;;;3.43;2.40;;;22.70;57.00;;;;;;6203574;28;20267;-81
2023/08/22 07:41:10;;;;;;;2.80;2.60;;;22.70;58.40;;;;;;6211503;28;20651;-80
2023/08/22 07:44:14;;;;;;;5.70;3.37;;;22.60;58.20;;;;;;6216282;28;20798;-80
2023/08/22 07:47:19;;;;;;;3.80;2.67;;;22.60;58.00;;;;;;6209164;28;20274;-82
2023/08/22 07:50:22;;;;;;;2.83;2.63;;;22.70;57.40;;;;;;6219623;28;20721;-79
2023/08/22 07:53:26;;;;;;;2.77;2.57;;;22.60;57.10;;;;;;6227769;28;20235;-80
2023/08/22 07:56:29;;;;;;;4.10;2.50;;;22.80;56.50;;;;;;6208253;28;20289;-77
2023/08/22 07:59:33;;;;;;;2.93;2.70;;;22.80;56.50;;;;;;6212295;28;20275;-78
2023/08/22 08:02:37;;;;;;;5.00;2.50;;;23.20;56.60;;;;;;6222956;28;20832;-79
2023/08/22 08:05:40;;;;;;;3.40;3.10;;;23.50;56.40;;;;;;6212334;28;20227;-81
2023/08/22 08:08:44;;;;;;;3.77;3.40;;;23.60;55.80;;;;;;6211910;28;20301;-79
2023/08/22 08:11:46;;;;;;;4.70;2.97;;;23.70;55.80;;;;;;6221038;28;20281;-80
2023/08/22 08:14:50;;;;;;;2.50;2.30;;;24.00;55.70;;;;;;6210418;28;20239;-80
2023/08/22 08:17:55;;;;;;;3.07;2.63;;;24.00;55.20;;;;;;6212599;28;20740;-79
2023/08/22 08:20:59;;;;;;;2.80;2.50;;;24.00;55.20;;;;;;6238218;28;20238;-79
2023/08/22 08:24:03;;;;;;;2.90;2.70;;;23.90;55.50;;;;;;6228836;28;20250;-80
2023/08/22 08:27:06;;;;;;;3.30;2.53;;;23.80;55.90;;;;;;6236535;28;20318;-78
2023/08/22 08:30:10;;;;;;;6.73;2.63;;;23.60;56.40;;;;;;6236987;28;20320;-79
2023/08/22 08:33:15;;;;;;;4.20;2.70;;;23.80;56.10;;;;;;6235342;28;20234;-79
2023/08/22 08:36:19;;;;;;;3.70;3.40;;;23.80;56.20;;;;;;6237258;28;20442;-81
2023/08/22 08:39:22;;;;;;;2.70;2.43;;;24.00;56.90;;;;;;6226041;28;20730;-82
2023/08/22 08:42:25;;;;;;;3.57;2.80;;;24.10;57.30;;;;;;6211386;28;20242;-80
2023/08/22 08:45:29;;;;;;;3.80;2.80;;;24.20;55.90;;;;;;6236885;28;20411;-79
2023/08/22 08:48:36;;;;;;;4.43;2.77;;;24.30;56.50;;;;;;6236985;28;20327;-79
2023/08/22 08:51:40;;;;;;;4.70;2.87;;;24.50;56.10;;;;;;6232084;28;20247;-80
2023/08/22 08:54:45;;;;;;;3.07;2.87;;;24.60;55.40;;;;;;6234688;28;20277;-81
2023/08/22 08:57:48;;;;;;;4.40;3.37;;;24.60;55.00;;;;;;6237033;28;20739;-79
2023/08/22 09:00:54;;;;;;;2.90;2.70;;;24.40;55.30;;;;;;6236768;28;20269;-82
2023/08/22 09:03:59;;;;;;;3.17;2.90;;;24.40;55.90;;;;;;6229046;28;20241;-81
2023/08/22 09:07:02;;;;;;;7.60;2.87;;;24.40;57.00;;;;;;6227012;28;20317;-82
2023/08/22 09:10:06;;;;;;;5.47;3.47;;;24.40;57.00;;;;;;6236096;28;20265;-77
2023/08/22 09:13:09;;;;;;;7.80;3.37;;;24.40;56.40;;;;;;6236701;28;20240;-80
2023/08/22 09:16:12;;;;;;;4.37;3.20;;;24.40;56.40;;;;;;6234839;28;20858;-80
2023/08/22 09:19:17;;;;;;;7.23;3.10;;;24.40;55.60;;;;;;6230788;28;20755;-81
2023/08/22 09:22:21;;;;;;;3.97;2.83;;;24.20;55.80;;;;;;6236784;28;20708;-80
2023/08/22 09:25:30;;;;;;;4.10;2.97;;;24.20;55.70;;;;;;6237010;28;20294;-78
2023/08/22 09:28:38;;;;;;;3.63;3.13;;;24.40;56.10;;;;;;6240418;28;20318;-81
2023/08/22 09:31:41;;;;;;;5.23;2.80;;;24.50;55.70;;;;;;6234725;28;20239;-81
2023/08/22 09:34:55;;;;;;;3.33;2.90;;;24.60;56.20;;;;;;6241104;28;20235;-81
2023/08/22 09:38:06;;;;;;;4.20;3.10;;;24.90;54.70;;;;;;6239091;28;20239;-82
2023/08/22 09:41:09;;;;;;;4.43;2.53;;;25.20;55.30;;;;;;6237917;28;20270;-82
2023/08/22 09:44:13;;;;;;;6.27;3.13;;;25.50;54.80;;;;;;6241742;28;20246;-81
2023/08/22 09:47:17;;;;;;;9.27;3.27;;;25.80;54.50;;;;;;6233258;28;20324;-80
2023/08/22 09:50:26;;;;;;;9.20;2.83;;;26.10;52.70;;;;;;6241829;28;20270;-83
2023/08/22 09:53:32;;;;;;;3.57;2.87;;;26.00;53.20;;;;;;6237134;28;20318;-79
2023/08/22 09:56:36;;;;;;;2.83;2.60;;;26.20;53.80;;;;;;6241308;28;20766;-76
2023/08/22 09:59:39;;;;;;;5.40;3.33;;;26.50;52.90;;;;;;6242007;28;20360;-79
2023/08/22 10:02:44;;;;;;;5.57;3.73;;;26.70;52.80;;;;;;6241570;28;20333;-81
2023/08/22 10:05:52;;;;;;;4.80;3.10;;;26.90;52.30;;;;;;6234955;28;20247;-82
2023/08/22 10:08:55;;;;;;;3.97;2.90;;;26.90;52.90;;;;;;6239142;28;20243;-81
2023/08/22 10:12:02;;;;;;;3.50;3.17;;;26.70;52.10;;;;;;6238910;28;20252;-81
2023/08/22 10:15:08;;;;;;;6.93;3.53;;;26.70;52.80;;;;;;6238804;28;20499;-81
2023/08/22 10:18:11;;;;;;;3.20;2.67;;;26.60;53.00;;;;;;6229302;28;20235;-79
2023/08/22 10:21:16;;;;;;;9.77;3.50;;;26.50;53.50;;;;;;6240150;28;20230;-82
2023/08/22 10:24:22;;;;;;;6.17;2.30;;;26.70;52.90;;;;;;6228595;28;20238;-79
2023/08/22 10:27:28;;;;;;;3.20;2.87;;;26.80;51.30;;;;;;6228793;28;20316;-82
2023/08/22 10:30:33;;;;;;;5.47;2.43;;;26.90;51.80;;;;;;6232525;28;20226;-81
2023/08/22 10:33:36;;;;;;;2.73;2.63;;;27.10;52.90;;;;;;6239785;28;20238;-82
2023/08/22 10:36:57;;;;;;;3.17;2.87;;;27.40;52.60;;;;;;6220792;28;20254;-82
2023/08/22 10:40:05;;;;;;;5.50;3.10;;;27.40;50.00;;;;;;6235134;28;20875;-79
2023/08/22 10:43:13;;;;;;;6.97;3.40;;;27.30;50.90;;;;;;6238069;28;20241;-79
2023/08/22 10:46:16;;;;;;;8.23;3.20;;;27.20;51.30;;;;;;6232062;28;20675;-79
2023/08/22 10:49:22;;;;;;;2.83;2.63;;;27.30;51.60;;;;;;6237560;28;20243;-81
2023/08/22 10:52:36;;;;;;;7.60;3.57;;;27.30;52.00;;;;;;6236771;28;20230;-79
2023/08/22 10:55:40;;;;;;;6.53;3.00;;;27.40;50.10;;;;;;6231241;28;20732;-81
2023/08/22 10:58:43;;;;;;;4.27;3.50;;;27.30;50.70;;;;;;6238244;28;20745;-81
2023/08/22 11:01:48;;;;;;;3.40;3.10;;;27.40;50.80;;;;;;6236993;28;20396;-80
2023/08/22 11:04:52;;;;;;;5.72;2.97;;;27.40;50.70;;;;;;6239043;28;20903;-80
2023/08/22 11:07:57;;;;;;;4.03;2.90;;;27.50;50.10;;;;;;6237653;28;20246;-78
2023/08/22 11:11:03;;;;;;;3.17;2.97;;;27.60;50.70;;;;;;6238648;28;20262;-78
2023/08/22 11:14:07;;;;;;;4.23;3.13;;;27.50;51.20;;;;;;6231208;28;20283;-78
2023/08/22 11:17:10;;;;;;;4.67;3.20;;;27.50;52.00;;;;;;6238654;28;20328;-79
2023/08/22 11:20:14;;;;;;;3.60;3.10;;;27.50;51.10;;;;;;6231673;28;20270;-78
2023/08/22 11:23:19;;;;;;;5.05;3.33;;;27.50;51.70;;;;;;6238055;28;20324;-78
2023/08/22 11:26:22;;;;;;;3.37;2.70;;;27.70;51.70;;;;;;6224394;28;20297;-78
2023/08/22 11:29:26;;;;;;;3.23;2.73;;;27.50;52.90;;;;;;6235030;28;20238;-80
2023/08/22 11:32:32;;;;;;;7.07;2.73;;;27.50;51.80;;;;;;6220820;28;20239;-78
2023/08/22 11:35:35;;;;;;;2.70;2.57;;;27.40;52.70;;;;;;6233122;28;20374;-77
2023/08/22 11:38:41;;;;;;;2.67;2.47;;;27.40;52.00;;;;;;6236529;28;20234;-76
2023/08/22 11:41:44;;;;;;;3.23;3.00;;;27.50;51.90;;;;;;6237089;28;21144;-79
2023/08/22 11:44:54;;;;;;;6.63;2.83;;;27.30;52.10;;;;;;6237544;28;20748;-78
2023/08/22 11:47:57;;;;;;;6.60;2.90;;;27.30;51.60;;;;;;6236841;28;20364;-77
2023/08/22 11:51:00;;;;;;;3.57;2.93;;;27.30;51.90;;;;;;6237298;28;20234;-78
2023/08/22 11:54:05;;;;;;;3.60;3.30;;;27.20;51.70;;;;;;6237525;28;20241;-78
2023/08/22 11:57:08;;;;;;;3.87;2.93;;;27.20;52.50;;;;;;6231333;28;20704;-78
2023/08/22 12:00:16;;;;;;;5.00;2.73;;;27.30;52.20;;;;;;6223653;28;20323;-77
2023/08/22 12:03:19;;;;;;;3.57;2.83;;;27.40;51.80;;;;;;6231966;28;20337;-79
2023/08/22 12:06:25;;;;;;;3.83;3.00;;;27.50;52.20;;;;;;6235322;28;20254;-80
2023/08/22 12:09:30;;;;;;;5.93;2.90;;;27.60;52.10;;;;;;6210105;28;20246;-81
2023/08/22 12:12:33;;;;;;;3.17;2.72;;;27.80;51.80;;;;;;6223819;28;20845;-80
2023/08/22 12:15:37;;;;;;;5.17;2.80;;;28.10;49.60;;;;;;6229239;28;20403;-81
2023/08/22 12:18:40;;;;;;;2.55;2.35;;;28.10;50.50;;;;;;6232858;28;20230;-78
2023/08/22 12:21:43;;;;;;;2.38;2.20;;;28.10;49.90;;;;;;6241738;28;20339;-83
2023/08/22 12:24:49;;;;;;;3.83;2.70;;;28.30;49.50;;;;;;6235829;28;20289;-78
2023/08/22 12:27:53;;;;;;;2.40;2.20;;;28.50;49.40;;;;;;6231610;28;20231;-80
2023/08/22 12:30:56;;;;;;;2.58;2.38;;;28.60;46.90;;;;;;6232193;28;20246;-79
2023/08/22 12:34:02;;;;;;;2.60;2.40;;;28.60;47.60;;;;;;6236420;28;20234;-80
2023/08/22 12:37:05;;;;;;;3.35;3.05;;;28.30;48.80;;;;;;6234110;28;20257;-80
2023/08/22 12:40:11;;;;;;;3.20;3.00;;;28.00;49.60;;;;;;6235393;28;20249;-79
2023/08/22 12:43:14;;;;;;;2.80;2.60;;;27.60;50.00;;;;;;6229001;28;20587;-79
2023/08/22 12:46:17;;;;;;;2.97;2.87;;;27.10;49.40;;;;;;6236953;28;20245;-78
2023/08/22 12:49:21;;;;;;;3.27;3.07;;;26.90;49.40;;;;;;6227697;28;20292;-76
2023/08/22 12:52:24;;;;;;;4.10;2.87;;;26.70;49.80;;;;;;6233644;28;20261;-77
2023/08/22 12:55:28;;;;;;;5.73;2.97;;;26.60;50.30;;;;;;6237458;28;20324;-79
2023/08/22 12:58:32;;;;;;;3.23;2.93;;;26.50;50.00;;;;;;6236733;28;20241;-77
2023/08/22 13:01:35;;;;;;;3.37;2.80;;;26.50;50.10;;;;;;6242802;28;20316;-77
2023/08/22 13:04:38;;;;;;;3.00;2.90;;;26.40;51.00;;;;;;6240636;28;20234;-77
2023/08/22 13:07:43;;;;;;;3.03;2.57;;;26.50;50.50;;;;;;6242784;28;20264;-77
2023/08/22 13:10:48;;;;;;;3.20;3.07;;;26.60;50.50;;;;;;6241128;28;20320;-77
2023/08/22 13:13:51;;;;;;;3.53;2.87;;;26.60;50.20;;;;;;6242616;28;20262;-78
2023/08/22 13:16:55;;;;;;;3.00;2.80;;;26.60;49.70;;;;;;6241306;28;20288;-77
2023/08/22 13:19:58;;;;;;;3.17;2.87;;;26.70;49.70;;;;;;6238241;28;20234;-77
2023/08/22 13:23:01;;;;;;;2.90;2.80;;;26.60;49.90;;;;;;6236103;28;20231;-79
2023/08/22 13:26:06;;;;;;;3.03;2.80;;;26.50;49.60;;;;;;6226478;28;20739;-81
2023/08/22 13:29:11;;;;;;;3.43;3.23;;;26.40;50.70;;;;;;6219955;28;20246;-77
2023/08/22 13:32:14;;;;;;;3.47;3.23;;;26.20;51.20;;;;;;6239498;28;20247;-80
2023/08/22 13:35:18;;;;;;;3.67;3.47;;;26.00;51.40;;;;;;6233092;28;20831;-82
2023/08/22 13:38:21;;;;;;;3.03;2.83;;;26.00;51.70;;;;;;6239816;28;20280;-79
2023/08/22 13:41:26;;;;;;;4.53;3.37;;;26.00;52.30;;;;;;6237232;28;20809;-81
2023/08/22 13:44:29;;;;;;;3.23;3.07;;;26.00;51.70;;;;;;6241604;28;20238;-77
2023/08/22 13:47:34;;;;;;;3.47;2.83;;;26.00;51.40;;;;;;6242311;28;20296;-78
2023/08/22 13:50:38;;;;;;;3.47;2.83;;;26.00;51.70;;;;;;6241941;28;20303;-81
2023/08/22 13:53:41;;;;;;;3.47;3.27;;;26.10;50.40;;;;;;6240514;28;20304;-80
2023/08/22 13:56:46;;;;;;;3.80;3.50;;;26.20;50.90;;;;;;6233038;28;20234;-80
2023/08/22 13:59:50;;;;;;;3.80;3.60;;;26.20;51.90;;;;;;6247605;28;20322;-81
2023/08/22 14:02:53;;;;;;;5.40;3.10;;;26.20;51.00;;;;;;6240146;28;20234;-81
2023/08/22 14:05:57;;;;;;;3.70;3.23;;;26.20;51.80;;;;;;6239995;28;20226;-81
2023/08/22 14:09:00;;;;;;;3.30;3.10;;;26.30;52.90;;;;;;6230987;28;20245;-79
2023/08/22 14:12:14;;;;;;;5.50;3.00;;;26.40;51.50;;;;;;6239663;28;20226;-81
2023/08/22 14:15:17;;;;;;;3.30;3.10;;;26.30;52.30;;;;;;6240523;28;20234;-81
2023/08/22 14:18:21;;;;;;;3.47;3.30;;;26.30;51.30;;;;;;6235578;28;20330;-81
2023/08/22 14:21:24;;;;;;;3.70;3.33;;;26.20;52.30;;;;;;6200867;28;20242;-80
2023/08/22 14:24:47;;;;;;;2.93;2.73;;;26.30;51.70;;;;;;6204856;28;20282;-81
2023/08/22 14:27:56;;;;;;;6.37;3.60;;;26.20;52.00;;;;;;6206487;28;20244;-83
2023/08/22 14:31:01;;;;;;;3.70;3.40;;;26.30;51.60;;;;;;6209139;28;20272;-80
2023/08/22 14:34:05;;;;;;;3.90;3.17;;;26.40;51.90;;;;;;6208910;28;20262;-80
2023/08/22 14:37:08;;;;;;;4.63;4.00;;;26.50;51.20;;;;;;6218019;28;20836;-80
2023/08/22 14:40:25;;;;;;;4.03;3.50;;;26.70;51.50;;;;;;6210517;28;20234;-80
2023/08/22 14:43:30;;;;;;;3.87;3.67;;;26.80;52.50;;;;;;6214004;28;20309;-81
2023/08/22 14:46:33;;;;;;;4.00;3.83;;;26.80;52.50;;;;;;6206392;28;20304;-81
2023/08/22 14:49:36;;;;;;;5.07;3.20;;;26.70;51.50;;;;;;6211318;28;20242;-82
2023/08/22 14:52:39;;;;;;;3.53;3.23;;;26.70;51.10;;;;;;6205693;28;20322;-81
2023/08/22 14:55:56;;;;;;;3.67;3.37;;;26.50;51.30;;;;;;6217312;28;20231;-78
2023/08/22 14:59:02;;;;;;;4.10;3.80;;;26.50;51.40;;;;;;6219103;28;20705;-77
2023/08/22 15:02:06;;;;;;;4.97;4.00;;;26.40;52.10;;;;;;6202435;28;20323;-79
2023/08/22 15:05:09;;;;;;;3.80;3.50;;;26.20;51.60;;;;;;6212045;28;20330;-78
2023/08/22 15:08:12;;;;;;;3.73;3.43;;;26.20;51.40;;;;;;6218230;28;20254;-79
2023/08/22 15:11:15;;;;;;;3.80;3.53;;;26.10;51.40;;;;;;6217122;28;20281;-79
2023/08/22 15:14:20;;;;;;;4.03;3.77;;;26.00;51.30;;;;;;6220781;28;20608;-79
2023/08/22 15:17:24;;;;;;;4.77;4.10;;;26.00;52.00;;;;;;6209795;28;20246;-78
2023/08/22 15:20:27;;;;;;;3.80;3.60;;;25.80;52.20;;;;;;6217901;28;20235;-80
2023/08/22 15:23:30;;;;;;;3.67;3.40;;;25.80;51.10;;;;;;6219469;28;20238;-79
2023/08/22 15:26:38;;;;;;;3.83;3.53;;;25.70;51.30;;;;;;6221315;28;20737;-80
2023/08/22 15:29:43;;;;;;;3.57;3.40;;;25.60;51.80;;;;;;6218500;28;20234;-79
2023/08/22 15:32:46;;;;;;;4.63;3.10;;;25.60;52.20;;;;;;6205219;28;20265;-77
2023/08/22 15:35:50;;;;;;;4.33;3.97;;;25.60;51.90;;;;;;6220633;28;20246;-81
2023/08/22 15:38:55;;;;;;;3.70;3.50;;;25.60;52.20;;;;;;6216617;28;20232;-80
2023/08/22 15:41:58;;;;;;;3.87;3.57;;;25.60;52.80;;;;;;6220316;28;20776;-79
2023/08/22 15:45:04;;;;;;;3.40;3.20;;;25.60;52.70;;;;;;6224366;28;20301;-78
2023/08/22 15:48:07;;;;;;;3.43;3.13;;;25.50;53.20;;;;;;6218644;28;20238;-78
2023/08/22 15:51:10;;;;;;;5.67;3.57;;;25.40;52.60;;;;;;6222018;28;20230;-78
2023/08/22 15:54:13;;;;;;;3.70;3.40;;;25.40;52.20;;;;;;6216673;28;20312;-79
2023/08/22 15:57:16;;;;;;;3.93;3.73;;;25.30;52.10;;;;;;6198523;28;21011;-80